createdAt,value
2018-12-09T00:00:43.122Z,98261.73
2018-12-09T00:03:08.962Z,98250.42
2018-12-09T00:05:34.886Z,98250.27
2018-12-09T00:08:00.723Z,98249.52
2018-12-09T00:10:26.675Z,98236.12
2018-12-09T00:12:52.417Z,98233.24
2018-12-09T00:15:18.156Z,98224.16
2018-12-09T00:17:44.008Z,98213.14
2018-12-09T00:20:11.038Z,98207.79
2018-12-09T00:22:36.764Z,98202.72
2018-12-09T00:25:02.924Z,98201.92
2018-12-09T00:27:28.666Z,98194.69
2018-12-09T00:29:54.390Z,98197.95
2018-12-09T00:32:20.124Z,98193.93
2018-12-09T00:34:45.863Z,98183.38
2018-12-09T00:37:12.006Z,98181.28
2018-12-09T00:39:38.762Z,98181.28
2018-12-09T00:42:04.872Z,98172.20
2018-12-09T00:44:30.628Z,98171.32
2018-12-09T00:46:58.291Z,98172.15
2018-12-09T00:49:24.020Z,98171.15
2018-12-09T00:51:49.846Z,98171.69
2018-12-09T00:54:15.580Z,98165.66
2018-12-09T00:56:42.546Z,98166.16
2018-12-09T00:59:08.431Z,98161.63
2018-12-09T01:01:37.172Z,98163.73
2018-12-09T01:04:04.038Z,98157.56
2018-12-09T01:06:29.887Z,98159.63
2018-12-09T01:08:55.806Z,98161.05
2018-12-09T01:11:21.740Z,98150.03
2018-12-09T01:13:47.486Z,98148.91
2018-12-09T01:16:14.154Z,98155.07
2018-12-09T01:18:39.899Z,98148.28
2018-12-09T01:21:05.787Z,98149.13
2018-12-09T01:23:31.607Z,98154.98
2018-12-09T01:25:57.345Z,98160.09
2018-12-09T01:28:23.079Z,98154.48
2018-12-09T01:30:48.880Z,98157.17
2018-12-09T01:33:14.622Z,98158.22
2018-12-09T01:35:40.379Z,98151.59
2018-12-09T01:38:13.173Z,98152.10
2018-12-09T01:40:45.336Z,98153.81
2018-12-09T01:43:11.183Z,98148.74
2018-12-09T01:45:36.928Z,98150.20
2018-12-09T01:48:02.782Z,98154.17
2018-12-09T01:50:28.641Z,98163.02
2018-12-09T01:52:58.486Z,98156.06
2018-12-09T01:55:24.546Z,98159.03
2018-12-09T01:57:50.275Z,98158.41
2018-12-09T02:00:16.239Z,98170.47
2018-12-09T02:02:41.995Z,98169.55
2018-12-09T02:05:14.646Z,98174.38
2018-12-09T02:07:40.387Z,98177.92
2018-12-09T02:10:06.347Z,98177.39
2018-12-09T02:12:32.088Z,98185.21
2018-12-09T02:14:58.254Z,98178.55
2018-12-09T02:17:24.499Z,98175.92
2018-12-09T02:19:50.691Z,98175.12
2018-12-09T02:22:16.430Z,98176.41
2018-12-09T02:24:42.271Z,98181.02
2018-12-09T02:27:08.128Z,98188.23
2018-12-09T02:29:33.879Z,98192.96
2018-12-09T02:31:59.640Z,98188.23
2018-12-09T02:34:25.594Z,98187.55
2018-12-09T02:36:51.442Z,98186.64
2018-12-09T02:39:17.186Z,98189.33
2018-12-09T02:41:43.031Z,98185.13
2018-12-09T02:44:08.762Z,98188.06
2018-12-09T02:46:34.920Z,98193.17
2018-12-09T02:49:00.780Z,98193.17
2018-12-09T02:51:26.627Z,98201.27
2018-12-09T02:53:52.363Z,98202.05
2018-12-09T02:56:18.202Z,98194.22
2018-12-09T02:58:44.054Z,98194.56
2018-12-09T03:01:09.911Z,98197.78
2018-12-09T03:03:35.835Z,98199.88
2018-12-09T03:06:01.680Z,98198.24
2018-12-09T03:08:27.415Z,98202.47
2018-12-09T03:10:53.263Z,98196.86
2018-12-09T03:13:19.395Z,98197.11
2018-12-09T03:15:45.148Z,98194.22
2018-12-09T03:18:10.900Z,98204.27
2018-12-09T03:20:36.732Z,98195.89
2018-12-09T03:23:02.478Z,98202.64
2018-12-09T03:25:28.204Z,98199.95
2018-12-09T03:27:54.047Z,98200.20
2018-12-09T03:30:19.997Z,98192.00
2018-12-09T03:32:45.816Z,98206.16
2018-12-09T03:35:11.761Z,98208.73
2018-12-09T03:37:37.499Z,98208.72
2018-12-09T03:40:04.167Z,98208.67
2018-12-09T03:42:29.995Z,98224.31
2018-12-09T03:44:55.714Z,98226.48
2018-12-09T03:47:21.559Z,98238.35
2018-12-09T03:49:47.412Z,98230.31
2018-12-09T03:52:13.246Z,98239.23
2018-12-09T03:54:39.283Z,98245.69
2018-12-09T03:57:05.235Z,98242.50
2018-12-09T03:59:31.058Z,98242.21
2018-12-09T04:01:56.904Z,98251.05
2018-12-09T04:04:22.730Z,98246.28
2018-12-09T04:06:48.600Z,98256.19
2018-12-09T04:09:14.433Z,98255.95
2018-12-09T04:11:40.392Z,98254.47
2018-12-09T04:14:06.123Z,98252.03
2018-12-09T04:16:32.390Z,98263.34
2018-12-09T04:18:58.215Z,98259.33
2018-12-09T04:21:23.961Z,98268.99
2018-12-09T04:23:49.702Z,98269.84
2018-12-09T04:26:15.448Z,98267.17
2018-12-09T04:28:41.277Z,98264.23
2018-12-09T04:31:07.047Z,98268.05
2018-12-09T04:33:32.903Z,98270.73
2018-12-09T04:35:59.058Z,98270.39
2018-12-09T04:38:24.899Z,98272.13
2018-12-09T04:40:50.666Z,98272.06
2018-12-09T04:43:16.515Z,98274.16
2018-12-09T04:45:42.347Z,98276.48
2018-12-09T04:48:08.107Z,98280.50
2018-12-09T04:50:34.172Z,98274.41
2018-12-09T04:52:59.919Z,98279.77
2018-12-09T04:55:25.746Z,98285.06
2018-12-09T04:57:51.615Z,98291.30
2018-12-09T05:00:27.402Z,98287.11
2018-12-09T05:02:53.144Z,98282.69
2018-12-09T05:05:18.890Z,98294.48
2018-12-09T05:07:44.662Z,98288.33
2018-12-09T05:10:10.429Z,98289.43
2018-12-09T05:12:36.199Z,98285.95
2018-12-09T05:15:01.953Z,98293.16
2018-12-09T05:17:27.787Z,98288.54
2018-12-09T05:19:53.625Z,98297.91
2018-12-09T05:22:19.374Z,98294.94
2018-12-09T05:24:45.126Z,98299.20
2018-12-09T05:27:10.865Z,98299.73
2018-12-09T05:29:36.827Z,98307.31
2018-12-09T05:32:02.639Z,98310.53
2018-12-09T05:34:28.382Z,98315.94
2018-12-09T05:36:54.443Z,98329.00
2018-12-09T05:39:20.302Z,98333.76
2018-12-09T05:41:46.127Z,98322.39
2018-12-09T05:44:11.982Z,98333.58
2018-12-09T05:46:37.714Z,98337.59
2018-12-09T05:49:03.534Z,98333.13
2018-12-09T05:51:29.249Z,98338.64
2018-12-09T05:53:55.119Z,98334.63
2018-12-09T05:56:20.953Z,98330.55
2018-12-09T05:58:46.679Z,98340.92
2018-12-09T06:01:12.525Z,98338.34
2018-12-09T06:03:38.291Z,98332.72
2018-12-09T06:06:04.128Z,98333.61
2018-12-09T06:08:30.094Z,98338.91
2018-12-09T06:10:55.943Z,98343.02
2018-12-09T06:13:21.994Z,98348.07
2018-12-09T06:15:47.942Z,98343.91
2018-12-09T06:18:13.717Z,98349.44
2018-12-09T06:20:39.575Z,98352.23
2018-12-09T06:23:05.466Z,98352.30
2018-12-09T06:25:31.309Z,98352.09
2018-12-09T06:27:57.477Z,98354.17
2018-12-09T06:30:23.254Z,98358.78
2018-12-09T06:32:49.035Z,98362.34
2018-12-09T06:35:14.953Z,98364.11
2018-12-09T06:37:40.894Z,98360.09
2018-12-09T06:40:06.738Z,98363.06
2018-12-09T06:42:32.768Z,98369.91
2018-12-09T06:44:58.625Z,98372.70
2018-12-09T06:47:24.467Z,98377.91
2018-12-09T06:49:50.429Z,98376.33
2018-12-09T06:52:16.275Z,98381.01
2018-12-09T06:54:42.006Z,98379.84
2018-12-09T06:57:08.276Z,98389.88
2018-12-09T06:59:34.032Z,98400.50
2018-12-09T07:01:59.763Z,98420.20
2018-12-09T07:04:32.592Z,98418.41
2018-12-09T07:06:58.329Z,98416.48
2018-12-09T07:09:24.202Z,98411.06
2018-12-09T07:11:50.365Z,98403.89
2018-12-09T07:14:16.134Z,98414.91
2018-12-09T07:16:41.970Z,98412.67
2018-12-09T07:19:07.854Z,98432.91
2018-12-09T07:21:33.657Z,98424.72
2018-12-09T07:23:59.434Z,98428.84
2018-12-09T07:26:25.598Z,98429.79
2018-12-09T07:28:51.451Z,98426.22
2018-12-09T07:31:17.186Z,98438.33
2018-12-09T07:33:42.931Z,98435.00
2018-12-09T07:36:08.701Z,98436.04
2018-12-09T07:38:34.467Z,98443.48
2018-12-09T07:41:00.655Z,98448.57
2018-12-09T07:43:26.535Z,98452.11
2018-12-09T07:45:52.295Z,98448.98
2018-12-09T07:50:51.110Z,98462.06
2018-12-09T07:53:16.838Z,98479.87
2018-12-09T07:55:42.595Z,98492.73
2018-12-09T07:58:08.447Z,98496.84
2018-12-09T08:00:34.206Z,98491.39
2018-12-09T08:02:59.925Z,98510.75
2018-12-09T08:05:25.655Z,98487.95
2018-12-09T08:07:51.370Z,98495.08
2018-12-09T08:10:17.129Z,98491.80
2018-12-09T08:12:42.955Z,98492.19
2018-12-09T08:15:08.795Z,98495.80
2018-12-09T08:17:34.522Z,98497.94
2018-12-09T08:20:00.382Z,98509.73
2018-12-09T08:22:26.206Z,98512.91
2018-12-09T08:24:52.102Z,98510.67
2018-12-09T08:27:17.954Z,98514.99
2018-12-09T08:29:43.695Z,98512.23
2018-12-09T08:32:09.423Z,98514.11
2018-12-09T08:34:35.182Z,98518.70
2018-12-09T08:37:00.907Z,98547.50
2018-12-09T08:39:26.627Z,98556.08
2018-12-09T08:41:52.476Z,98565.41
2018-12-09T08:44:18.203Z,98561.50
2018-12-09T08:46:44.067Z,98561.50
2018-12-09T08:49:09.794Z,98560.82
2018-12-09T08:51:35.534Z,98563.59
2018-12-09T08:54:02.774Z,98561.89
2018-12-09T08:56:28.830Z,98562.52
2018-12-09T08:58:54.578Z,98573.53
2018-12-09T09:01:20.321Z,98576.86
2018-12-09T09:03:46.056Z,98577.70
2018-12-09T09:06:11.825Z,98590.72
2018-12-09T09:08:37.676Z,98581.63
2018-12-09T09:11:03.504Z,98593.62
2018-12-09T09:13:29.246Z,98586.98
2018-12-09T09:15:55.001Z,98592.64
2018-12-09T09:18:20.755Z,98595.77
2018-12-09T09:20:46.627Z,98604.98
2018-12-09T09:23:12.463Z,98604.53
2018-12-09T09:25:38.350Z,98604.38
2018-12-09T09:28:04.166Z,98611.39
2018-12-09T09:30:29.985Z,98615.70
2018-12-09T09:32:55.707Z,98615.83
2018-12-09T09:37:54.014Z,98626.05
2018-12-09T09:43:13.330Z,98628.64
2018-12-09T09:45:39.143Z,98625.84
2018-12-09T09:48:04.979Z,98622.47
2018-12-09T09:50:30.706Z,98626.44
2018-12-09T09:52:56.462Z,98635.83
2018-12-09T09:55:22.311Z,98638.51
2018-12-09T09:57:48.073Z,98637.73
2018-12-09T10:00:13.829Z,98641.99
2018-12-09T10:02:39.680Z,98646.40
2018-12-09T10:05:05.627Z,98645.86
2018-12-09T10:07:31.385Z,98601.44
2018-12-09T10:09:57.122Z,98646.76
2018-12-09T10:12:30.075Z,98658.45
2018-12-09T10:14:55.802Z,98646.47
2018-12-09T10:17:21.528Z,98648.91
2018-12-09T10:19:47.273Z,98651.89
2018-12-09T10:22:13.126Z,98655.08
2018-12-09T10:24:38.878Z,98656.22
2018-12-09T10:27:04.634Z,98654.30
2018-12-09T10:29:30.460Z,98666.36
2018-12-09T10:31:56.186Z,98666.89
2018-12-09T10:34:21.921Z,98666.36
2018-12-09T10:36:47.661Z,98669.20
2018-12-09T10:39:14.652Z,98675.84
2018-12-09T10:41:40.433Z,98673.38
2018-12-09T10:44:06.658Z,98674.16
2018-12-09T10:46:32.931Z,98679.16
2018-12-09T10:49:00.118Z,98682.14
2018-12-09T10:51:25.839Z,98683.94
2018-12-09T10:53:51.601Z,98688.77
2018-12-09T10:56:17.354Z,98691.43
2018-12-09T10:58:43.114Z,98699.39
2018-12-09T11:01:13.726Z,98702.76
2018-12-09T11:03:39.475Z,98694.95
2018-12-09T11:06:05.303Z,98695.69
2018-12-09T11:08:31.025Z,98697.84
2018-12-09T11:10:57.191Z,98704.16
2018-12-09T11:13:22.922Z,98700.44
2018-12-09T11:15:48.642Z,98706.73
2018-12-09T11:18:14.491Z,98708.52
2018-12-09T11:20:40.441Z,98711.02
2018-12-09T11:23:06.170Z,98704.96
2018-12-09T11:25:32.002Z,98709.94
2018-12-09T11:27:57.778Z,98709.39
2018-12-09T11:30:23.622Z,98705.25
2018-12-09T11:32:49.464Z,98704.87
2018-12-09T11:35:15.313Z,98707.20
2018-12-09T11:37:41.055Z,98700.08
2018-12-09T11:40:07.089Z,98715.33
2018-12-09T11:42:32.842Z,98711.41
2018-12-09T11:44:58.599Z,98709.42
2018-12-09T11:47:24.543Z,98711.59
2018-12-09T11:49:50.306Z,98716.36
2018-12-09T11:52:16.070Z,98719.17
2018-12-09T11:54:41.952Z,98724.15
2018-12-09T11:57:07.787Z,98717.83
2018-12-09T11:59:33.652Z,98719.91
2018-12-09T12:01:59.395Z,98716.72
2018-12-09T12:04:25.223Z,98720.69
2018-12-09T12:06:50.962Z,98715.53
2018-12-09T12:09:16.811Z,98717.70
2018-12-09T12:11:42.693Z,98714.52
2018-12-09T12:14:08.446Z,98726.05
2018-12-09T12:16:34.290Z,98738.13
2018-12-09T12:19:00.046Z,98757.09
2018-12-09T12:21:25.782Z,98763.20
2018-12-09T12:23:51.498Z,98751.95
2018-12-09T12:26:17.589Z,98747.17
2018-12-09T12:28:50.549Z,98751.86
2018-12-09T12:31:16.419Z,98759.13
2018-12-09T12:33:42.150Z,98763.92
2018-12-09T12:36:07.882Z,98771.07
2018-12-09T12:38:33.782Z,98762.76
2018-12-09T12:40:59.675Z,98763.50
2018-12-09T12:43:25.513Z,98769.09
2018-12-09T12:45:51.372Z,98765.76
2018-12-09T12:48:17.122Z,98775.28
2018-12-09T12:50:42.963Z,98786.38
2018-12-09T12:53:08.801Z,98791.23
2018-12-09T12:55:34.643Z,98801.13
2018-12-09T12:58:00.458Z,98794.50
2018-12-09T13:00:41.528Z,98786.31
2018-12-09T13:03:07.375Z,98796.14
2018-12-09T13:05:33.219Z,98799.13
2018-12-09T13:07:58.961Z,98803.28
2018-12-09T13:10:24.699Z,98800.13
2018-12-09T13:12:50.535Z,98806.16
2018-12-09T13:15:16.494Z,98817.19
2018-12-09T13:17:42.356Z,98823.09
2018-12-09T13:20:08.202Z,98817.73
2018-12-09T13:22:34.026Z,98833.81
2018-12-09T13:24:59.773Z,98828.38
2018-12-09T13:27:25.635Z,98847.16
2018-12-09T13:29:51.378Z,98844.54
2018-12-09T13:32:17.208Z,98862.41
2018-12-09T13:34:43.045Z,98864.91
2018-12-09T13:37:08.882Z,98873.41
2018-12-09T13:39:34.751Z,98875.63
2018-12-09T13:42:00.591Z,98881.45
2018-12-09T13:44:26.419Z,98882.49
2018-12-09T13:46:52.152Z,98887.20
2018-12-09T13:49:17.943Z,98887.32
2018-12-09T13:51:43.786Z,98892.78
2018-12-09T13:54:09.512Z,98902.75
2018-12-09T13:56:35.229Z,98914.52
2018-12-09T13:59:01.169Z,98916.38
2018-12-09T14:01:26.921Z,98912.59
2018-12-09T14:03:52.659Z,98923.44
2018-12-09T14:06:18.501Z,98929.11
2018-12-09T14:08:44.358Z,98931.60
2018-12-09T14:11:10.222Z,98940.17
2018-12-09T14:13:35.979Z,98941.21
2018-12-09T14:16:01.718Z,98943.05
2018-12-09T14:18:27.647Z,98949.33
2018-12-09T14:20:53.358Z,98963.34
2018-12-09T14:23:19.068Z,98965.42
2018-12-09T14:25:45.003Z,98973.30
2018-12-09T14:28:10.789Z,98980.73
2018-12-09T14:30:36.528Z,98976.17
2018-12-09T14:33:02.629Z,98989.47
2018-12-09T14:35:28.378Z,98987.40
2018-12-09T14:37:54.132Z,98994.30
2018-12-09T14:40:20.083Z,98997.28
2018-12-09T14:42:45.934Z,99001.00
2018-12-09T14:45:11.749Z,99006.36
2018-12-09T14:47:37.594Z,99011.30
2018-12-09T14:50:03.714Z,99004.59
2018-12-09T14:52:29.450Z,99003.87
2018-12-09T14:54:55.162Z,99011.61
2018-12-09T14:57:21.006Z,99022.71
2018-12-09T14:59:46.742Z,99026.54
2018-12-09T15:02:12.468Z,99036.50
2018-12-09T15:04:38.218Z,99043.44
2018-12-09T15:07:04.066Z,99045.42
2018-12-09T15:09:29.902Z,99050.83
2018-12-09T15:11:56.056Z,99056.23
2018-12-09T15:14:21.897Z,99068.56
2018-12-09T15:16:47.638Z,99070.78
2018-12-09T15:19:13.386Z,99066.56
2018-12-09T15:21:39.124Z,99080.39
2018-12-09T15:24:04.874Z,99081.62
2018-12-09T15:26:30.798Z,99081.84
2018-12-09T15:28:56.766Z,99085.55
2018-12-09T15:31:22.497Z,99097.31
2018-12-09T15:33:48.241Z,99096.67
2018-12-09T15:36:13.964Z,99112.14
2018-12-09T15:38:41.999Z,99052.34
2018-12-09T15:41:07.733Z,99113.40
2018-12-09T15:43:33.465Z,99109.41
2018-12-09T15:48:28.626Z,99127.00
2018-12-09T15:50:54.673Z,99129.06
2018-12-09T15:53:20.510Z,99141.43
2018-12-09T15:55:46.222Z,99144.66
2018-12-09T15:58:11.942Z,99151.56
2018-12-09T16:00:39.702Z,99167.12
2018-12-09T16:03:05.497Z,99158.86
2018-12-09T16:05:31.219Z,99173.09
2018-12-09T16:07:56.954Z,99172.36
2018-12-09T16:10:22.786Z,99182.88
2018-12-09T16:12:48.642Z,99187.52
2018-12-09T16:15:14.370Z,99202.35
2018-12-09T16:17:40.122Z,99191.84
2018-12-09T16:20:05.945Z,99208.04
2018-12-09T16:22:31.662Z,99206.51
2018-12-09T16:24:57.395Z,99219.38
2018-12-09T16:27:23.109Z,99217.75
2018-12-09T16:29:48.910Z,99222.08
2018-12-09T16:32:14.748Z,99236.82
2018-12-09T16:34:40.505Z,99236.52
2018-12-09T16:37:06.247Z,99241.78
2018-12-09T16:39:32.107Z,99243.51
2018-12-09T16:41:57.838Z,99261.24
2018-12-09T16:44:23.579Z,99261.03
2018-12-09T16:46:49.301Z,99263.52
2018-12-09T16:49:15.161Z,99268.75
2018-12-09T16:51:40.981Z,99271.03
2018-12-09T16:54:06.731Z,99285.45
2018-12-09T16:56:32.655Z,99286.08
2018-12-09T16:58:58.486Z,99293.71
2018-12-09T17:01:31.099Z,99297.20
2018-12-09T17:03:56.877Z,99308.23
2018-12-09T17:06:22.699Z,99322.78
2018-12-09T17:08:48.458Z,99305.55
2018-12-09T17:11:14.206Z,99322.78
2018-12-09T17:13:40.067Z,99330.20
2018-12-09T17:16:05.825Z,99341.84
2018-12-09T17:18:31.598Z,99341.42
2018-12-09T17:20:57.341Z,99348.44
2018-12-09T17:23:23.065Z,99354.02
2018-12-09T17:25:48.826Z,99359.89
2018-12-09T17:28:14.545Z,99363.31
2018-12-09T17:30:40.282Z,99364.66
2018-12-09T17:33:06.021Z,99369.70
2018-12-09T17:35:32.051Z,99379.98
2018-12-09T17:37:57.771Z,99385.95
2018-12-09T17:40:23.522Z,99395.34
2018-12-09T17:42:49.278Z,99410.78
2018-12-09T17:45:15.146Z,99403.47
2018-12-09T17:47:40.895Z,99428.63
2018-12-09T17:50:07.250Z,99428.48
2018-12-09T17:52:33.006Z,99430.56
2018-12-09T17:54:58.825Z,99443.14
2018-12-09T17:57:24.569Z,99452.86
2018-12-09T17:59:50.321Z,99451.00
2018-12-09T18:02:16.049Z,99465.13
2018-12-09T18:04:41.900Z,99464.99
2018-12-09T18:07:07.640Z,99462.29
2018-12-09T18:09:33.391Z,99473.20
2018-12-09T18:11:59.335Z,99474.92
2018-12-09T18:14:25.085Z,99482.44
2018-12-09T18:16:50.847Z,99501.69
2018-12-09T18:19:16.800Z,99507.71
2018-12-09T18:21:49.611Z,99512.78
2018-12-09T18:24:15.339Z,99513.28
2018-12-09T18:26:41.202Z,99519.73
2018-12-09T18:29:06.938Z,99535.78
2018-12-09T18:31:33.187Z,99543.56
2018-12-09T18:33:58.930Z,99544.59
2018-12-09T18:36:24.666Z,99554.91
2018-12-09T18:38:50.487Z,99559.52
2018-12-09T18:41:16.351Z,99559.52
2018-12-09T18:43:49.181Z,99571.68
2018-12-09T18:46:14.931Z,99572.22
2018-12-09T18:48:40.768Z,99575.16
2018-12-09T18:51:06.606Z,99590.84
2018-12-09T18:53:32.459Z,99584.95
2018-12-09T18:55:58.246Z,99598.48
2018-12-09T18:58:24.054Z,99610.83
2018-12-09T19:00:49.902Z,99608.79
2018-12-09T19:03:15.653Z,99615.42
2018-12-09T19:05:41.514Z,99627.22
2018-12-09T19:08:07.390Z,99624.86
2018-12-09T19:10:33.361Z,99640.17
2018-12-09T19:12:59.212Z,99633.69
2018-12-09T19:15:24.950Z,99641.41
2018-12-09T19:17:50.705Z,99650.45
2018-12-09T19:20:16.456Z,99657.53
2018-12-09T19:22:42.207Z,99671.63
2018-12-09T19:25:08.030Z,99689.09
2018-12-09T19:27:33.767Z,99696.25
2018-12-09T19:29:59.607Z,99703.87
2018-12-09T19:32:32.469Z,99715.75
2018-12-09T19:34:58.210Z,99729.84
2018-12-09T19:37:23.947Z,99724.75
2018-12-09T19:39:49.714Z,99710.71
2018-12-09T19:42:15.454Z,99717.09
2018-12-09T19:44:41.317Z,99733.56
2018-12-09T19:47:07.170Z,99740.10
2018-12-09T19:49:33.042Z,99744.97
2018-12-09T19:51:58.885Z,99751.83
2018-12-09T19:54:24.719Z,99755.67
2018-12-09T19:56:50.556Z,99759.55
2018-12-09T19:59:16.407Z,99765.54
2018-12-09T20:01:42.157Z,99769.31
2018-12-09T20:04:07.928Z,99776.77
2018-12-09T20:06:33.774Z,99792.47
2018-12-09T20:08:59.521Z,99794.99
2018-12-09T20:11:25.351Z,99799.53
2018-12-09T20:13:51.175Z,99808.05
2018-12-09T20:16:16.898Z,99813.56
2018-12-09T20:18:42.638Z,99809.87
2018-12-09T20:21:08.588Z,99815.09
2018-12-09T20:23:34.339Z,99815.55
2018-12-09T20:26:00.095Z,99835.20
2018-12-09T20:28:25.868Z,99832.03
2018-12-09T20:30:51.698Z,99841.00
2018-12-09T20:33:17.455Z,99849.23
2018-12-09T20:35:43.254Z,99853.83
2018-12-09T20:38:08.980Z,99863.50
2018-12-09T20:40:34.814Z,99856.56
2018-12-09T20:43:00.550Z,99864.35
2018-12-09T20:45:26.404Z,99860.98
2018-12-09T20:47:52.266Z,99868.12
2018-12-09T20:50:18.024Z,99870.08
2018-12-09T20:52:43.782Z,99872.31
2018-12-09T20:55:09.561Z,99874.66
2018-12-09T20:57:35.401Z,99879.53
2018-12-09T21:00:01.360Z,99899.81
2018-12-09T21:02:27.310Z,99900.91
2018-12-09T21:04:53.067Z,99908.10
2018-12-09T21:07:19.351Z,99909.27
2018-12-09T21:09:45.179Z,99919.46
2018-12-09T21:12:10.999Z,99924.70
2018-12-09T21:14:36.756Z,99927.70
2018-12-09T21:17:02.520Z,99919.63
2018-12-09T21:19:28.263Z,99927.86
2018-12-09T21:22:01.138Z,99930.98
2018-12-09T21:24:26.920Z,99928.10
2018-12-09T21:26:52.775Z,99925.59
2018-12-09T21:29:18.610Z,99935.20
2018-12-09T21:31:44.366Z,99937.42
2018-12-09T21:34:10.089Z,99940.69
2018-12-09T21:36:35.851Z,99938.64
2018-12-09T21:39:01.815Z,99956.77
2018-12-09T21:41:27.577Z,99960.66
2018-12-09T21:43:53.301Z,99963.92
2018-12-09T21:46:19.155Z,99960.23
2018-12-09T21:48:44.875Z,99964.94
2018-12-09T21:51:10.642Z,99976.06
2018-12-09T21:53:36.375Z,99976.42
2018-12-09T21:56:03.337Z,99989.50
2018-12-09T21:58:29.125Z,99986.72
2018-12-09T22:00:54.994Z,99999.78
2018-12-09T22:03:20.739Z,99999.28
2018-12-09T22:05:46.487Z,100010.67
2018-12-09T22:08:12.209Z,100012.03
2018-12-09T22:10:39.117Z,100012.99
2018-12-09T22:13:05.125Z,100019.69
2018-12-09T22:15:30.952Z,100022.84
2018-12-09T22:17:56.782Z,100029.73
2018-12-09T22:20:22.503Z,100032.41
2018-12-09T22:22:48.254Z,100043.59
2018-12-09T22:25:14.028Z,100045.95
2018-12-09T22:27:39.771Z,100054.69
2018-12-09T22:30:05.611Z,100075.56
2018-12-09T22:32:31.434Z,100062.98
2018-12-09T22:34:57.168Z,100049.14
2018-12-09T22:37:22.899Z,100055.64
2018-12-09T22:39:48.632Z,100064.61
2018-12-09T22:42:14.579Z,100060.97
2018-12-09T22:44:40.459Z,100070.05
2018-12-09T22:47:06.354Z,100078.77
2018-12-09T22:49:32.066Z,100084.84
2018-12-09T22:51:57.805Z,100091.22
2018-12-09T22:54:23.652Z,100096.42
2018-12-09T22:56:49.446Z,100101.97
2018-12-09T22:59:15.181Z,100110.13
2018-12-09T23:01:43.443Z,100111.32
2018-12-09T23:04:09.935Z,100105.98
2018-12-09T23:06:35.758Z,100115.67
2018-12-09T23:09:01.496Z,100121.55
2018-12-09T23:11:27.337Z,100124.89
2018-12-09T23:13:53.066Z,100124.90
2018-12-09T23:16:18.906Z,100135.73
2018-12-09T23:18:44.673Z,100122.17
2018-12-09T23:21:10.510Z,100135.85
2018-12-09T23:23:43.326Z,100137.19
2018-12-09T23:26:09.093Z,100145.36
2018-12-09T23:28:34.947Z,100148.04
2018-12-09T23:31:01.691Z,100144.70
2018-12-09T23:33:27.550Z,100165.56
2018-12-09T23:35:53.282Z,100161.88
2018-12-09T23:38:19.014Z,100168.23
2018-12-09T23:40:44.834Z,100170.77
2018-12-09T23:43:10.573Z,100172.43
2018-12-09T23:45:36.293Z,100168.09
2018-12-09T23:48:02.123Z,100171.63
2018-12-09T23:50:27.862Z,100172.48
2018-12-09T23:52:53.619Z,100171.42
2018-12-09T23:55:19.506Z,100164.73
2018-12-09T23:57:45.263Z,100175.73
